createdAt,value
2023-02-19T00:01:30.020Z,82.06
2023-02-19T00:04:02.519Z,81.80
2023-02-19T00:06:31.079Z,81.89
2023-02-19T00:08:57.761Z,81.99
2023-02-19T00:11:27.774Z,81.88
2023-02-19T00:13:57.383Z,81.81
2023-02-19T00:16:31.779Z,81.54
2023-02-19T00:19:00.169Z,81.95
2023-02-19T00:21:27.404Z,81.93
2023-02-19T00:23:56.476Z,81.58
2023-02-19T00:26:23.265Z,81.78
2023-02-19T00:28:51.409Z,81.80
2023-02-19T00:31:24.206Z,81.73
2023-02-19T00:33:53.964Z,81.71
2023-02-19T00:36:20.795Z,81.81
2023-02-19T00:38:48.189Z,81.79
2023-02-19T00:41:19.081Z,81.70
2023-02-19T00:43:57.282Z,81.36
2023-02-19T00:46:35.902Z,81.75
2023-02-19T00:49:02.855Z,81.87
2023-02-19T00:51:32.039Z,81.96
2023-02-19T00:53:58.814Z,82.10
2023-02-19T00:56:25.433Z,82.38
2023-02-19T00:58:51.970Z,82.29
2023-02-19T01:01:19.324Z,82.27
2023-02-19T01:03:46.887Z,82.17
2023-02-19T01:06:15.741Z,82.21
2023-02-19T01:08:42.406Z,82.27
2023-02-19T01:11:11.672Z,82.45
2023-02-19T01:13:38.661Z,82.44
2023-02-19T01:16:10.570Z,82.27
2023-02-19T01:18:37.192Z,82.53
2023-02-19T01:21:13.440Z,81.97
2023-02-19T01:23:40.355Z,82.37
2023-02-19T01:26:09.238Z,82.13
2023-02-19T01:28:36.590Z,82.11
2023-02-19T01:31:05.532Z,82.23
2023-02-19T01:33:33.215Z,82.11
2023-02-19T01:36:00.221Z,82.14
2023-02-19T01:38:27.620Z,82.10
2023-02-19T01:40:58.432Z,82.04
2023-02-19T01:43:25.045Z,81.99
2023-02-19T01:45:51.769Z,82.04
2023-02-19T01:48:23.072Z,81.61
2023-02-19T01:51:02.915Z,81.55
2023-02-19T01:53:33.512Z,81.92
2023-02-19T01:56:02.270Z,81.97
2023-02-19T01:58:33.954Z,81.67
2023-02-19T02:01:03.049Z,81.80
2023-02-19T02:03:31.354Z,82.06
2023-02-19T02:06:03.784Z,81.57
2023-02-19T02:08:50.266Z,81.81
2023-02-19T02:11:17.730Z,81.88
2023-02-19T02:13:44.765Z,82.21
2023-02-19T02:16:30.289Z,81.20
2023-02-19T02:19:17.994Z,81.40
2023-02-19T02:22:02.913Z,81.22
2023-02-19T02:25:00.591Z,80.90
2023-02-19T02:28:04.232Z,80.92
2023-02-19T02:30:46.317Z,81.94
2023-02-19T02:33:21.777Z,81.82
2023-02-19T02:35:53.128Z,81.46
2023-02-19T02:38:23.706Z,81.53
2023-02-19T02:40:51.231Z,81.97
2023-02-19T02:43:17.868Z,81.89
2023-02-19T02:45:44.434Z,81.75
2023-02-19T02:48:19.747Z,81.54
2023-02-19T02:50:54.524Z,81.54
2023-02-19T02:53:46.221Z,81.41
2023-02-19T02:56:15.532Z,81.39
2023-02-19T02:58:43.388Z,81.64
2023-02-19T03:01:43.300Z,80.91
2023-02-19T03:04:15.618Z,81.34
2023-02-19T03:06:44.588Z,81.54
2023-02-19T03:09:30.198Z,81.29
2023-02-19T03:12:19.114Z,81.20
2023-02-19T03:15:17.082Z,81.04
2023-02-19T03:18:07.317Z,81.09
2023-02-19T03:20:36.624Z,81.35
2023-02-19T03:23:05.156Z,81.39
2023-02-19T03:25:54.471Z,81.45
2023-02-19T03:28:45.211Z,81.26
2023-02-19T03:31:17.045Z,81.09
2023-02-19T03:33:47.355Z,80.99
2023-02-19T03:36:18.914Z,81.31
2023-02-19T03:38:56.823Z,80.50
2023-02-19T03:41:23.292Z,81.40
2023-02-19T03:43:49.683Z,81.23
2023-02-19T03:46:25.683Z,80.75
2023-02-19T03:49:10.491Z,80.32
2023-02-19T03:51:44.136Z,80.74
2023-02-19T03:54:35.254Z,80.35
2023-02-19T03:57:11.826Z,81.15
2023-02-19T03:59:52.449Z,80.45
2023-02-19T04:03:06.045Z,80.19
2023-02-19T04:05:37.303Z,81.12
2023-02-19T04:08:14.082Z,80.60
2023-02-19T04:10:41.756Z,81.22
2023-02-19T04:13:26.434Z,80.10
2023-02-19T04:15:56.938Z,80.75
2023-02-19T04:18:29.127Z,80.55
2023-02-19T04:20:57.568Z,80.86
2023-02-19T04:23:28.932Z,80.62
2023-02-19T04:25:59.554Z,80.27
2023-02-19T04:28:26.130Z,80.84
2023-02-19T04:30:52.814Z,80.79
2023-02-19T04:33:19.352Z,81.03
2023-02-19T04:35:45.776Z,80.69
2023-02-19T04:38:13.824Z,80.61
2023-02-19T04:40:40.375Z,80.67
2023-02-19T04:43:06.945Z,80.71
2023-02-19T04:45:33.581Z,80.81
2023-02-19T04:48:00.215Z,80.68
2023-02-19T04:50:26.689Z,80.65
2023-02-19T04:52:53.318Z,80.69
2023-02-19T04:55:19.810Z,80.88
2023-02-19T04:57:46.247Z,80.84
2023-02-19T05:00:13.490Z,80.88
2023-02-19T05:02:39.969Z,80.77
2023-02-19T05:05:06.591Z,81.01
2023-02-19T05:07:33.732Z,80.88
2023-02-19T05:10:00.158Z,80.78
2023-02-19T05:12:26.833Z,80.85
2023-02-19T05:14:53.504Z,80.53
2023-02-19T05:17:20.065Z,80.75
2023-02-19T05:19:46.529Z,80.80
2023-02-19T05:22:12.963Z,80.75
2023-02-19T05:24:39.509Z,80.64
2023-02-19T05:27:06.004Z,80.47
2023-02-19T05:29:32.540Z,80.48
2023-02-19T05:32:05.422Z,79.66
2023-02-19T05:34:32.083Z,80.49
2023-02-19T05:36:58.632Z,80.57
2023-02-19T05:39:25.141Z,80.52
2023-02-19T05:41:51.653Z,80.63
2023-02-19T05:44:18.111Z,80.61
2023-02-19T05:46:44.660Z,80.71
2023-02-19T05:49:11.054Z,80.74
2023-02-19T05:51:37.595Z,80.36
2023-02-19T05:54:04.178Z,80.29
2023-02-19T05:56:38.972Z,79.76
2023-02-19T05:59:17.945Z,79.53
2023-02-19T06:01:44.982Z,80.66
2023-02-19T06:04:12.386Z,80.38
2023-02-19T06:06:39.184Z,79.07
2023-02-19T06:09:06.853Z,78.28
2023-02-19T06:11:34.070Z,77.56
2023-02-19T06:14:00.875Z,77.34
2023-02-19T06:16:27.635Z,77.17
2023-02-19T06:18:54.184Z,77.22
2023-02-19T06:21:20.739Z,77.37
2023-02-19T06:23:47.409Z,78.02
2023-02-19T06:26:20.910Z,77.98
2023-02-19T06:28:49.288Z,78.24
2023-02-19T06:31:17.360Z,77.95
2023-02-19T06:33:44.133Z,77.45
2023-02-19T06:36:16.355Z,76.95
2023-02-19T06:38:42.974Z,77.12
2023-02-19T06:41:11.165Z,77.30
2023-02-19T06:43:38.208Z,77.16
2023-02-19T06:46:06.719Z,76.93
2023-02-19T06:48:33.978Z,77.08
2023-02-19T06:51:00.504Z,77.14
2023-02-19T06:53:27.584Z,77.26
2023-02-19T06:55:57.773Z,76.82
2023-02-19T06:58:24.610Z,77.71
2023-02-19T07:00:51.189Z,77.41
2023-02-19T07:03:17.715Z,78.07
2023-02-19T07:05:44.224Z,78.58
2023-02-19T07:08:10.766Z,78.82
2023-02-19T07:10:37.331Z,78.72
2023-02-19T07:13:04.072Z,79.00
2023-02-19T07:15:30.607Z,78.62
2023-02-19T07:17:57.018Z,78.10
2023-02-19T07:20:23.539Z,78.45
2023-02-19T07:22:50.418Z,78.49
2023-02-19T07:25:17.215Z,78.41
2023-02-19T07:27:43.643Z,78.62
2023-02-19T07:30:10.930Z,78.57
2023-02-19T07:32:41.281Z,78.03
2023-02-19T07:35:08.008Z,78.73
2023-02-19T07:37:34.604Z,78.52
2023-02-19T07:40:01.308Z,78.52
2023-02-19T07:42:27.937Z,78.57
2023-02-19T07:44:54.515Z,78.99
2023-02-19T07:47:20.950Z,78.88
2023-02-19T07:49:47.374Z,79.08
2023-02-19T07:52:13.878Z,79.47
2023-02-19T07:54:40.348Z,79.09
2023-02-19T07:57:06.884Z,79.59
2023-02-19T07:59:34.927Z,79.50
2023-02-19T08:02:19.690Z,79.48
2023-02-19T08:04:48.037Z,79.20
2023-02-19T08:07:14.466Z,79.08
2023-02-19T08:09:40.926Z,79.11
2023-02-19T08:12:29.373Z,79.37
2023-02-19T08:14:55.884Z,79.69
2023-02-19T08:17:22.420Z,79.12
2023-02-19T08:19:48.967Z,78.90
2023-02-19T08:22:16.295Z,78.66
2023-02-19T08:24:45.048Z,78.39
2023-02-19T08:27:11.588Z,78.22
2023-02-19T08:29:38.005Z,77.92
2023-02-19T08:32:04.699Z,78.38
2023-02-19T08:34:31.212Z,77.82
2023-02-19T08:36:57.762Z,78.09
2023-02-19T08:39:24.319Z,78.05
2023-02-19T08:41:50.930Z,78.59
2023-02-19T08:44:18.069Z,79.06
2023-02-19T08:46:44.440Z,79.51
2023-02-19T08:49:10.929Z,79.34
2023-02-19T08:51:37.408Z,79.26
2023-02-19T08:54:04.325Z,78.81
2023-02-19T08:56:30.856Z,78.76
2023-02-19T08:58:57.400Z,79.09
2023-02-19T09:01:23.982Z,79.33
2023-02-19T09:03:50.708Z,79.59
2023-02-19T09:06:19.006Z,79.49
2023-02-19T09:08:45.501Z,79.78
2023-02-19T09:11:12.778Z,79.39
2023-02-19T09:13:39.483Z,79.14
2023-02-19T09:16:06.366Z,78.93
2023-02-19T09:18:33.019Z,79.26
2023-02-19T09:21:05.077Z,79.62
2023-02-19T09:23:36.331Z,78.72
2023-02-19T09:26:06.758Z,79.67
2023-02-19T09:28:33.388Z,80.09
2023-02-19T09:31:12.013Z,78.35
2023-02-19T09:33:42.199Z,79.41
2023-02-19T09:36:09.025Z,79.01
2023-02-19T09:38:35.477Z,79.06
2023-02-19T09:41:14.460Z,77.13
2023-02-19T09:43:42.894Z,78.55
2023-02-19T09:46:32.555Z,78.04
2023-02-19T09:49:08.045Z,77.36
2023-02-19T09:51:37.956Z,78.22
2023-02-19T09:54:07.839Z,78.61
2023-02-19T09:56:34.668Z,79.54
2023-02-19T09:59:01.696Z,79.61
2023-02-19T10:01:32.818Z,79.09
2023-02-19T10:03:59.625Z,80.28
2023-02-19T10:06:29.849Z,79.80
2023-02-19T10:09:11.467Z,79.21
2023-02-19T10:11:38.434Z,80.12
2023-02-19T10:14:09.510Z,79.03
2023-02-19T10:16:40.838Z,78.03
2023-02-19T10:19:12.397Z,77.83
2023-02-19T10:21:39.954Z,78.59
2023-02-19T10:24:08.242Z,78.11
2023-02-19T10:26:36.737Z,78.30
2023-02-19T10:29:05.150Z,78.56
2023-02-19T10:31:33.407Z,79.28
2023-02-19T10:34:01.974Z,79.51
2023-02-19T10:36:42.783Z,79.74
2023-02-19T10:39:43.931Z,77.33
2023-02-19T10:42:22.035Z,78.17
2023-02-19T10:44:58.843Z,78.61
2023-02-19T10:47:27.210Z,80.16
2023-02-19T10:49:59.450Z,79.43
2023-02-19T10:52:30.191Z,79.13
2023-02-19T10:55:18.390Z,79.32
2023-02-19T10:57:46.884Z,79.53
2023-02-19T11:03:23.950Z,75.10
2023-02-19T11:05:56.318Z,77.89
2023-02-19T11:08:24.311Z,77.42
2023-02-19T11:10:51.169Z,77.51
2023-02-19T11:13:32.210Z,76.07
2023-02-19T11:15:59.894Z,78.50
2023-02-19T11:18:30.276Z,78.13
2023-02-19T11:20:58.288Z,80.12
2023-02-19T11:23:34.393Z,81.49
2023-02-19T11:26:05.082Z,86.48
2023-02-19T11:28:35.066Z,89.88
2023-02-19T11:31:20.133Z,82.80
2023-02-19T11:34:14.660Z,76.53
2023-02-19T11:36:42.791Z,77.44
2023-02-19T11:39:15.083Z,73.63
2023-02-19T11:42:01.396Z,75.98
2023-02-19T11:44:46.594Z,73.15
2023-02-19T11:47:34.821Z,72.72
2023-02-19T11:50:21.087Z,79.78
2023-02-19T11:53:00.103Z,75.91
2023-02-19T11:55:32.652Z,77.01
2023-02-19T11:58:13.658Z,81.35
2023-02-19T12:01:05.221Z,70.96
2023-02-19T12:03:55.830Z,68.08
2023-02-19T12:06:48.479Z,66.11
2023-02-19T12:09:43.219Z,65.73
2023-02-19T12:12:36.155Z,63.41
2023-02-19T12:15:09.428Z,62.09
2023-02-19T12:17:51.195Z,61.52
2023-02-19T12:20:27.082Z,60.41
2023-02-19T12:23:08.645Z,61.35
2023-02-19T12:25:57.774Z,61.25
2023-02-19T12:28:42.936Z,64.51
2023-02-19T12:31:40.552Z,60.85
2023-02-19T12:34:19.327Z,65.70
2023-02-19T12:36:56.222Z,62.35
2023-02-19T12:39:49.991Z,63.97
2023-02-19T12:43:04.036Z,63.76
2023-02-19T12:45:36.414Z,65.92
2023-02-19T12:48:20.518Z,63.91
2023-02-19T12:50:51.356Z,64.99
2023-02-19T12:53:20.973Z,67.10
2023-02-19T12:55:48.335Z,67.14
2023-02-19T12:58:27.392Z,64.92
2023-02-19T13:00:59.139Z,67.62
2023-02-19T13:03:30.687Z,65.33
2023-02-19T13:06:21.313Z,64.00
2023-02-19T13:09:06.388Z,65.10
2023-02-19T13:11:56.440Z,64.75
2023-02-19T13:14:34.757Z,65.70
2023-02-19T13:17:09.415Z,65.88
2023-02-19T13:19:37.896Z,67.55
2023-02-19T13:22:40.869Z,65.08
2023-02-19T13:25:10.149Z,67.45
2023-02-19T13:27:48.969Z,63.59
2023-02-19T13:31:07.750Z,64.58
2023-02-19T13:33:44.807Z,64.46
2023-02-19T13:36:21.539Z,64.00
2023-02-19T13:38:50.049Z,65.68
2023-02-19T13:41:31.181Z,62.59
2023-02-19T13:44:03.677Z,64.23
2023-02-19T13:46:37.818Z,63.72
2023-02-19T13:49:22.873Z,63.23
2023-02-19T13:51:55.004Z,64.31
2023-02-19T13:54:29.018Z,64.12
2023-02-19T13:57:23.414Z,63.93
2023-02-19T13:59:51.804Z,66.42
2023-02-19T14:02:21.328Z,64.88
2023-02-19T14:04:55.538Z,64.32
2023-02-19T14:07:35.256Z,63.92
2023-02-19T14:10:03.050Z,66.73
2023-02-19T14:12:35.164Z,65.45
2023-02-19T14:15:39.042Z,65.06
2023-02-19T14:18:42.537Z,65.62
2023-02-19T14:21:39.833Z,65.72
2023-02-19T14:24:13.426Z,65.71
2023-02-19T14:26:41.270Z,68.11
2023-02-19T14:29:10.619Z,67.55
2023-02-19T14:31:38.434Z,67.27
2023-02-19T14:34:13.634Z,67.12
2023-02-19T14:37:01.074Z,65.48
2023-02-19T14:39:31.173Z,67.34
2023-02-19T14:42:01.021Z,67.04
2023-02-19T14:44:33.951Z,66.92
2023-02-19T14:47:09.573Z,65.80
2023-02-19T14:49:47.297Z,65.93
2023-02-19T14:52:22.030Z,66.27
2023-02-19T14:54:50.898Z,66.98
2023-02-19T14:57:23.504Z,66.80
2023-02-19T15:00:22.512Z,65.60
2023-02-19T15:02:53.529Z,66.87
2023-02-19T15:05:26.109Z,66.40
2023-02-19T15:07:55.306Z,68.06
2023-02-19T15:10:22.565Z,68.32
2023-02-19T15:12:55.536Z,66.40
2023-02-19T15:15:23.190Z,66.95
2023-02-19T15:17:50.984Z,68.28
2023-02-19T15:20:24.554Z,66.17
2023-02-19T15:22:52.882Z,67.89
2023-02-19T15:25:22.259Z,67.45
2023-02-19T15:27:49.082Z,68.18
2023-02-19T15:30:27.470Z,66.42
2023-02-19T15:32:59.527Z,66.03
2023-02-19T15:35:28.755Z,67.45
2023-02-19T15:37:55.682Z,68.01
2023-02-19T15:40:29.381Z,66.34
2023-02-19T15:42:56.378Z,67.77
2023-02-19T15:45:37.657Z,65.64
2023-02-19T15:48:10.609Z,66.49
2023-02-19T15:50:44.045Z,66.00
2023-02-19T15:53:18.812Z,66.52
2023-02-19T15:56:07.561Z,65.72
2023-02-19T15:58:45.682Z,65.94
2023-02-19T16:01:15.810Z,68.00
2023-02-19T16:03:42.886Z,68.19
2023-02-19T16:06:14.981Z,67.48
2023-02-19T16:09:01.963Z,66.81
2023-02-19T16:11:37.018Z,67.28
2023-02-19T16:14:37.115Z,66.27
2023-02-19T16:17:22.033Z,67.55
2023-02-19T16:19:56.831Z,68.99
2023-02-19T16:22:26.648Z,68.65
2023-02-19T16:25:00.887Z,67.77
2023-02-19T16:27:34.132Z,68.40
2023-02-19T16:30:10.344Z,67.64
2023-02-19T16:32:37.047Z,69.38
2023-02-19T16:35:04.929Z,69.18
2023-02-19T16:37:56.030Z,67.55
2023-02-19T16:40:45.521Z,68.40
2023-02-19T16:43:15.087Z,68.38
2023-02-19T16:45:42.267Z,69.23
2023-02-19T16:48:10.255Z,69.57
2023-02-19T16:50:37.116Z,69.42
2023-02-19T16:53:04.239Z,69.66
2023-02-19T16:55:32.571Z,69.44
2023-02-19T16:57:59.075Z,69.76
2023-02-19T17:02:58.525Z,69.44
2023-02-19T17:05:28.422Z,69.79
2023-02-19T17:07:55.291Z,70.31
2023-02-19T17:10:25.421Z,69.74
2023-02-19T17:12:53.623Z,70.05
2023-02-19T17:15:20.464Z,70.42
2023-02-19T17:17:47.945Z,70.50
2023-02-19T17:20:17.266Z,69.67
2023-02-19T17:22:44.421Z,70.69
2023-02-19T17:25:11.020Z,70.74
2023-02-19T17:27:37.487Z,70.74
2023-02-19T17:30:09.927Z,70.88
2023-02-19T17:32:36.490Z,70.94
2023-02-19T17:35:03.162Z,71.01
2023-02-19T17:37:29.632Z,71.06
2023-02-19T17:39:56.159Z,71.08
2023-02-19T17:42:23.550Z,71.03
2023-02-19T17:44:51.879Z,71.16
2023-02-19T17:47:18.514Z,71.24
2023-02-19T17:49:44.984Z,71.08
2023-02-19T17:52:13.580Z,70.97
2023-02-19T17:54:40.193Z,71.10
2023-02-19T17:57:06.661Z,71.12
2023-02-19T17:59:33.128Z,71.15
2023-02-19T18:01:59.665Z,71.24
2023-02-19T18:04:26.093Z,71.25
2023-02-19T18:06:53.959Z,71.58
2023-02-19T18:09:22.386Z,71.58
2023-02-19T18:11:49.314Z,71.67
2023-02-19T18:14:15.862Z,71.61
2023-02-19T18:16:49.985Z,70.49
2023-02-19T18:19:17.317Z,71.76
2023-02-19T18:21:44.085Z,71.88
2023-02-19T18:24:10.679Z,71.85
2023-02-19T18:26:37.205Z,71.71
2023-02-19T18:29:05.505Z,71.54
2023-02-19T18:31:37.308Z,71.03
2023-02-19T18:34:04.930Z,71.85
2023-02-19T18:36:33.543Z,71.44
2023-02-19T18:39:00.054Z,71.95
2023-02-19T18:41:26.660Z,71.91
2023-02-19T18:43:53.216Z,71.84
2023-02-19T18:46:21.272Z,71.74
2023-02-19T18:48:47.926Z,72.03
2023-02-19T18:51:14.582Z,71.98
2023-02-19T18:53:42.860Z,71.62
2023-02-19T18:56:09.379Z,71.94
2023-02-19T18:58:36.058Z,71.84
2023-02-19T19:01:02.723Z,71.96
2023-02-19T19:03:30.840Z,71.66
2023-02-19T19:05:57.616Z,71.95
2023-02-19T19:08:24.512Z,72.01
2023-02-19T19:10:51.031Z,72.04
2023-02-19T19:13:17.583Z,71.97
2023-02-19T19:15:49.867Z,70.80
2023-02-19T19:18:16.460Z,72.23
2023-02-19T19:20:42.965Z,72.18
2023-02-19T19:23:09.409Z,71.83
2023-02-19T19:25:36.048Z,71.80
2023-02-19T19:28:02.558Z,71.86
2023-02-19T19:30:29.180Z,72.03
2023-02-19T19:32:55.850Z,72.27
2023-02-19T19:35:22.726Z,72.27
2023-02-19T19:37:49.566Z,72.52
2023-02-19T19:40:17.856Z,72.58
2023-02-19T19:42:44.744Z,72.79
2023-02-19T19:45:12.435Z,72.81
2023-02-19T19:47:39.604Z,72.93
2023-02-19T19:50:06.324Z,72.76
2023-02-19T19:52:32.804Z,73.00
2023-02-19T19:54:59.302Z,72.99
2023-02-19T19:57:25.819Z,72.74
2023-02-19T19:59:52.505Z,73.08
2023-02-19T20:02:19.761Z,73.09
2023-02-19T20:04:46.301Z,73.12
2023-02-19T20:07:12.745Z,73.04
2023-02-19T20:09:39.339Z,73.09
2023-02-19T20:12:06.572Z,73.37
2023-02-19T20:14:33.852Z,73.25
2023-02-19T20:17:01.470Z,73.21
2023-02-19T20:19:27.997Z,73.28
2023-02-19T20:21:54.712Z,73.13
2023-02-19T20:24:24.904Z,72.90
2023-02-19T20:26:58.521Z,72.39
2023-02-19T20:29:30.161Z,72.45
2023-02-19T20:31:59.792Z,73.48
2023-02-19T20:34:26.965Z,73.45
2023-02-19T20:36:53.865Z,73.35
2023-02-19T20:39:22.211Z,73.19
2023-02-19T20:41:51.539Z,72.28
2023-02-19T20:44:19.311Z,73.05
2023-02-19T20:46:49.300Z,72.76
2023-02-19T20:49:17.811Z,72.68
2023-02-19T20:51:50.083Z,72.21
2023-02-19T20:54:17.371Z,72.68
2023-02-19T20:56:48.420Z,71.55
2023-02-19T20:59:16.253Z,72.91
2023-02-19T21:01:43.303Z,72.89
2023-02-19T21:04:10.082Z,73.27
2023-02-19T21:06:36.893Z,73.07
2023-02-19T21:09:04.853Z,72.91
2023-02-19T21:11:31.849Z,72.54
2023-02-19T21:13:59.347Z,72.26
2023-02-19T21:16:27.112Z,72.08
2023-02-19T21:18:54.142Z,71.99
2023-02-19T21:21:25.275Z,71.71
2023-02-19T21:23:57.112Z,71.12
2023-02-19T21:26:24.233Z,72.20
2023-02-19T21:28:51.762Z,71.57
2023-02-19T21:31:18.807Z,71.84
2023-02-19T21:33:45.433Z,72.01
2023-02-19T21:36:12.507Z,71.77
2023-02-19T21:38:39.200Z,71.58
2023-02-19T21:41:05.851Z,71.91
2023-02-19T21:43:32.362Z,72.19
2023-02-19T21:45:59.009Z,72.59
2023-02-19T21:48:25.445Z,72.32
2023-02-19T21:50:52.018Z,72.26
2023-02-19T21:53:19.156Z,71.86
2023-02-19T21:55:57.825Z,71.91
2023-02-19T21:58:25.351Z,72.15
2023-02-19T22:00:53.774Z,72.16
2023-02-19T22:03:20.475Z,71.96
2023-02-19T22:05:47.081Z,71.99
2023-02-19T22:08:15.543Z,72.62
2023-02-19T22:10:42.595Z,72.27
2023-02-19T22:13:09.897Z,72.63
2023-02-19T22:15:36.705Z,73.01
2023-02-19T22:18:03.523Z,73.03
2023-02-19T22:20:30.089Z,73.62
2023-02-19T22:22:56.548Z,73.31
2023-02-19T22:25:23.140Z,73.43
2023-02-19T22:27:49.790Z,73.25
2023-02-19T22:30:16.558Z,73.67
2023-02-19T22:32:43.123Z,73.66
2023-02-19T22:35:09.670Z,73.80
2023-02-19T22:37:36.214Z,74.09
2023-02-19T22:40:02.706Z,74.09
2023-02-19T22:42:29.426Z,74.25
2023-02-19T22:44:56.003Z,74.20
2023-02-19T22:47:22.537Z,74.11
2023-02-19T22:49:49.098Z,74.32
2023-02-19T22:52:15.726Z,74.35
2023-02-19T22:54:42.296Z,74.16
2023-02-19T22:57:08.722Z,74.26
2023-02-19T22:59:35.219Z,74.47
2023-02-19T23:02:01.769Z,74.40
2023-02-19T23:04:28.394Z,74.26
2023-02-19T23:06:54.930Z,74.07
2023-02-19T23:09:24.894Z,73.75
2023-02-19T23:11:52.198Z,74.28
2023-02-19T23:14:20.625Z,73.98
2023-02-19T23:16:47.140Z,74.18
2023-02-19T23:19:15.590Z,73.34
2023-02-19T23:21:43.927Z,73.69
2023-02-19T23:24:11.176Z,73.65
2023-02-19T23:26:45.580Z,72.78
2023-02-19T23:29:15.536Z,73.05
2023-02-19T23:31:42.270Z,73.81
2023-02-19T23:34:08.980Z,73.58
2023-02-19T23:36:42.718Z,72.53
2023-02-19T23:39:11.382Z,73.48
2023-02-19T23:41:38.346Z,74.06
2023-02-19T23:44:05.496Z,73.77
2023-02-19T23:46:33.938Z,74.08
2023-02-19T23:49:00.414Z,73.85
2023-02-19T23:51:26.940Z,73.90
2023-02-19T23:53:53.387Z,73.44
2023-02-19T23:56:28.232Z,72.53
2023-02-19T23:58:55.007Z,73.43
